createdAt,value
2018-05-17T00:01:41.907Z,11.93
2018-05-17T00:04:09.416Z,8.73
2018-05-17T00:06:36.941Z,11.63
2018-05-17T00:09:04.412Z,10.60
2018-05-17T00:11:31.887Z,10.77
2018-05-17T00:13:59.371Z,9.00
2018-05-17T00:16:26.860Z,10.03
2018-05-17T00:18:54.400Z,14.20
2018-05-17T00:21:21.987Z,15.07
2018-05-17T00:23:49.434Z,10.50
2018-05-17T00:26:16.901Z,14.67
2018-05-17T00:28:44.460Z,10.97
2018-05-17T00:31:11.957Z,10.20
2018-05-17T00:33:39.412Z,10.80
2018-05-17T00:36:06.908Z,14.33
2018-05-17T00:38:34.416Z,9.43
2018-05-17T00:41:01.905Z,7.57
2018-05-17T00:43:29.428Z,14.70
2018-05-17T00:45:56.910Z,10.30
2018-05-17T00:48:24.532Z,10.37
2018-05-17T00:50:52.026Z,9.67
2018-05-17T00:53:31.399Z,13.63
2018-05-17T00:55:58.843Z,8.97
2018-05-17T00:58:26.313Z,15.40
2018-05-17T01:00:53.814Z,11.97
2018-05-17T01:03:21.286Z,11.43
2018-05-17T01:05:48.767Z,13.57
2018-05-17T01:08:16.239Z,20.63
2018-05-17T01:10:43.746Z,13.90
2018-05-17T01:13:11.247Z,11.97
2018-05-17T01:15:38.701Z,12.80
2018-05-17T01:18:06.226Z,15.57
2018-05-17T01:20:33.687Z,12.97
2018-05-17T01:23:01.174Z,15.60
2018-05-17T01:25:28.735Z,15.87
2018-05-17T01:27:56.238Z,10.70
2018-05-17T01:30:23.719Z,10.37
2018-05-17T01:32:51.291Z,12.83
2018-05-17T01:35:18.797Z,18.03
2018-05-17T01:37:58.274Z,12.17
2018-05-17T01:40:25.758Z,13.33
2018-05-17T01:42:53.253Z,12.80
2018-05-17T01:45:20.789Z,13.10
2018-05-17T01:47:48.380Z,11.97
2018-05-17T01:50:15.903Z,20.23
2018-05-17T01:52:43.388Z,14.70
2018-05-17T01:55:10.866Z,14.13
2018-05-17T01:57:38.360Z,15.63
2018-05-17T02:00:05.851Z,13.73
2018-05-17T02:02:33.370Z,13.03
2018-05-17T02:05:00.840Z,20.83
2018-05-17T02:07:28.363Z,15.67
2018-05-17T02:09:55.853Z,18.90
2018-05-17T02:12:23.326Z,17.87
2018-05-17T02:14:50.792Z,14.53
2018-05-17T02:17:18.348Z,15.37
2018-05-17T02:19:45.930Z,16.17
2018-05-17T02:22:13.340Z,20.50
2018-05-17T02:24:40.843Z,19.50
2018-05-17T02:27:08.322Z,14.23
2018-05-17T02:29:35.836Z,17.63
2018-05-17T02:32:03.307Z,19.23
2018-05-17T02:34:30.889Z,13.87
2018-05-17T02:36:58.378Z,17.90
2018-05-17T02:39:25.877Z,19.20
2018-05-17T02:41:53.387Z,16.70
2018-05-17T02:44:20.891Z,20.57
2018-05-17T02:46:48.441Z,18.83
2018-05-17T02:49:15.947Z,18.57
2018-05-17T02:51:43.493Z,21.07
2018-05-17T02:54:10.998Z,19.73
2018-05-17T02:56:38.486Z,25.27
2018-05-17T02:59:05.988Z,18.40
2018-05-17T03:01:33.478Z,22.40
2018-05-17T03:04:00.963Z,23.87
2018-05-17T03:18:45.862Z,18.90
2018-05-17T03:21:13.389Z,21.50
2018-05-17T03:23:40.923Z,21.63
2018-05-17T03:26:08.394Z,23.67
2018-05-17T03:28:35.893Z,29.30
2018-05-17T03:31:03.413Z,18.70
2018-05-17T03:33:30.920Z,30.03
2018-05-17T03:38:32.136Z,18.33
2018-05-17T03:40:59.668Z,16.93
2018-05-17T03:43:27.129Z,19.13
2018-05-17T03:45:54.589Z,17.73
2018-05-17T03:48:22.071Z,19.77
2018-05-17T03:50:49.588Z,23.13
2018-05-17T03:53:17.162Z,20.37
2018-05-17T03:55:44.614Z,19.53
2018-05-17T03:58:12.066Z,23.33
2018-05-17T04:00:51.309Z,23.90
2018-05-17T04:03:30.641Z,18.97
2018-05-17T04:06:09.900Z,20.50
2018-05-17T04:08:37.475Z,20.63
2018-05-17T04:11:04.915Z,22.00
2018-05-17T04:13:32.434Z,20.13
2018-05-17T04:15:59.900Z,25.27
2018-05-17T04:18:27.418Z,20.90
2018-05-17T04:20:54.888Z,22.07
2018-05-17T04:23:22.381Z,18.80
2018-05-17T04:25:49.912Z,22.53
2018-05-17T04:28:17.416Z,19.97
2018-05-17T04:30:44.905Z,33.70
2018-05-17T04:33:12.360Z,21.70
2018-05-17T04:35:39.833Z,30.00
2018-05-17T04:38:07.287Z,24.10
2018-05-17T04:40:34.855Z,30.07
2018-05-17T04:43:02.295Z,24.97
2018-05-17T04:45:29.785Z,24.57
2018-05-17T04:47:57.395Z,22.67
2018-05-17T04:50:24.884Z,38.30
2018-05-17T04:52:52.384Z,16.90
2018-05-17T04:55:19.864Z,21.07
2018-05-17T04:57:47.356Z,21.80
2018-05-17T05:00:14.872Z,17.73
2018-05-17T05:02:42.429Z,18.30
2018-05-17T05:05:09.895Z,19.83
2018-05-17T05:07:37.399Z,15.67
2018-05-17T05:10:04.863Z,17.60
2018-05-17T05:12:32.357Z,14.87
2018-05-17T05:14:59.885Z,18.70
2018-05-17T05:17:27.404Z,18.10
2018-05-17T05:19:54.935Z,15.63
2018-05-17T05:22:22.416Z,19.83
2018-05-17T05:24:49.979Z,21.00
2018-05-17T05:27:17.437Z,18.07
2018-05-17T05:29:44.915Z,17.03
2018-05-17T05:32:12.409Z,16.43
2018-05-17T05:34:40.006Z,19.17
2018-05-17T05:37:07.471Z,16.00
2018-05-17T05:39:34.929Z,19.77
2018-05-17T05:42:02.797Z,20.23
2018-05-17T05:44:30.293Z,18.63
2018-05-17T05:46:57.759Z,16.80
2018-05-17T05:49:25.271Z,20.90
2018-05-17T05:51:52.807Z,16.40
2018-05-17T05:54:20.295Z,20.90
2018-05-17T05:56:47.836Z,17.33
2018-05-17T05:59:15.342Z,24.70
2018-05-17T06:01:42.811Z,18.70
2018-05-17T06:04:10.305Z,18.60
2018-05-17T06:06:37.820Z,15.47
2018-05-17T06:09:06.056Z,16.63
2018-05-17T06:11:33.564Z,20.90
2018-05-17T06:14:01.042Z,29.13
2018-05-17T06:16:28.532Z,23.43
2018-05-17T06:18:57.487Z,16.63
2018-05-17T06:21:24.970Z,16.50
2018-05-17T06:23:52.624Z,19.03
2018-05-17T06:26:19.999Z,12.97
2018-05-17T06:28:47.544Z,18.13
2018-05-17T06:31:15.071Z,15.30
2018-05-17T06:33:42.547Z,16.97
2018-05-17T06:36:10.124Z,13.93
2018-05-17T06:38:37.588Z,13.43
2018-05-17T06:41:05.080Z,18.30
2018-05-17T06:43:32.581Z,12.63
2018-05-17T06:46:00.053Z,14.47
2018-05-17T06:48:27.555Z,18.73
2018-05-17T06:50:55.010Z,18.37
2018-05-17T06:53:22.540Z,13.30
2018-05-17T06:55:50.028Z,12.60
2018-05-17T06:58:17.524Z,20.07
2018-05-17T07:00:45.017Z,15.93
2018-05-17T07:03:12.513Z,14.57
2018-05-17T07:05:40.095Z,14.67
2018-05-17T07:08:07.623Z,14.10
2018-05-17T07:10:35.132Z,13.33
2018-05-17T07:13:02.596Z,15.80
2018-05-17T07:15:30.092Z,18.83
2018-05-17T07:17:57.652Z,15.33
2018-05-17T07:20:25.032Z,13.60
2018-05-17T07:22:52.479Z,25.37
2018-05-17T07:25:20.061Z,13.03
2018-05-17T07:27:47.554Z,16.30
2018-05-17T07:30:15.081Z,15.33
2018-05-17T07:32:42.599Z,13.33
2018-05-17T07:35:10.067Z,25.23
2018-05-17T07:37:37.527Z,14.63
2018-05-17T07:40:04.976Z,13.33
2018-05-17T07:42:32.468Z,18.73
2018-05-17T07:45:00.029Z,16.03
2018-05-17T07:47:27.577Z,23.70
2018-05-17T07:49:55.105Z,15.20
2018-05-17T07:52:22.614Z,18.93
2018-05-17T07:54:50.110Z,20.23
2018-05-17T07:57:17.576Z,17.93
2018-05-17T07:59:45.170Z,16.87
2018-05-17T08:02:12.677Z,11.93
2018-05-17T08:04:40.185Z,25.43
2018-05-17T08:07:07.715Z,14.33
2018-05-17T08:09:35.309Z,15.67
2018-05-17T08:12:02.818Z,19.40
2018-05-17T08:14:30.403Z,15.57
2018-05-17T08:16:57.885Z,11.90
2018-05-17T08:19:25.388Z,18.00
2018-05-17T08:21:52.943Z,14.70
2018-05-17T08:24:20.483Z,14.70
2018-05-17T08:26:47.956Z,14.97
2018-05-17T08:29:15.453Z,10.60
2018-05-17T08:31:42.986Z,16.90
2018-05-17T08:34:10.488Z,14.10
2018-05-17T08:36:38.068Z,13.63
2018-05-17T08:39:06.409Z,16.70
2018-05-17T08:41:33.904Z,15.33
2018-05-17T08:44:01.423Z,17.83
2018-05-17T08:46:28.911Z,19.33
2018-05-17T08:48:56.384Z,18.23
2018-05-17T08:51:23.929Z,15.23
2018-05-17T08:53:51.415Z,17.10
2018-05-17T08:56:18.886Z,26.60
2018-05-17T08:58:46.371Z,15.03
2018-05-17T09:01:13.935Z,35.70
2018-05-17T09:03:41.521Z,18.33
2018-05-17T09:06:09.063Z,20.17
2018-05-17T09:08:36.523Z,20.60
2018-05-17T09:11:03.971Z,19.33
2018-05-17T09:13:31.556Z,15.47
2018-05-17T09:15:59.064Z,20.77
2018-05-17T09:18:26.537Z,21.27
2018-05-17T09:20:54.016Z,18.73
2018-05-17T09:23:21.598Z,18.30
2018-05-17T09:25:49.089Z,18.20
2018-05-17T09:28:16.611Z,16.70
2018-05-17T09:30:44.103Z,25.67
2018-05-17T09:33:11.679Z,18.03
2018-05-17T09:35:39.229Z,20.20
2018-05-17T09:38:06.632Z,14.57
2018-05-17T09:40:34.142Z,20.97
2018-05-17T09:43:01.596Z,34.00
2018-05-17T09:45:29.271Z,14.37
2018-05-17T09:47:56.734Z,29.83
2018-05-17T09:50:24.196Z,19.90
2018-05-17T09:52:51.656Z,14.77
2018-05-17T09:55:19.168Z,20.53
2018-05-17T09:57:46.653Z,21.17
2018-05-17T10:00:19.781Z,18.50
2018-05-17T10:02:47.261Z,24.07
2018-05-17T10:05:14.837Z,22.10
2018-05-17T10:07:42.329Z,21.70
2018-05-17T10:10:09.948Z,21.60
2018-05-17T10:12:37.446Z,23.13
2018-05-17T10:15:04.976Z,25.83
2018-05-17T10:17:32.573Z,19.20
2018-05-17T10:20:00.069Z,26.50
2018-05-17T10:22:27.584Z,21.83
2018-05-17T10:24:55.091Z,18.30
2018-05-17T10:27:22.572Z,15.40
2018-05-17T10:29:50.037Z,19.83
2018-05-17T10:32:17.590Z,23.63
2018-05-17T10:34:45.160Z,22.53
2018-05-17T10:37:12.673Z,17.83
2018-05-17T10:39:40.188Z,26.83
2018-05-17T10:42:07.744Z,19.60
2018-05-17T10:44:35.212Z,24.27
2018-05-17T10:47:02.714Z,21.30
2018-05-17T10:49:30.232Z,22.40
2018-05-17T10:51:57.700Z,16.90
2018-05-17T10:54:25.248Z,24.57
2018-05-17T10:56:52.905Z,24.50
2018-05-17T10:59:20.411Z,24.50
2018-05-17T11:01:47.905Z,20.73
2018-05-17T11:04:15.406Z,51.73
2018-05-17T11:06:42.866Z,19.43
2018-05-17T11:09:10.327Z,23.80
2018-05-17T11:11:37.795Z,23.07
2018-05-17T11:14:05.340Z,17.93
2018-05-17T11:16:32.818Z,14.63
2018-05-17T11:19:00.321Z,15.20
2018-05-17T11:21:27.798Z,22.60
2018-05-17T11:23:55.292Z,21.87
2018-05-17T11:26:22.792Z,22.77
2018-05-17T11:28:50.296Z,17.87
2018-05-17T11:31:17.842Z,19.37
2018-05-17T11:33:45.312Z,21.07
2018-05-17T11:36:12.816Z,22.87
2018-05-17T11:38:40.329Z,26.87
2018-05-17T11:41:07.816Z,20.67
2018-05-17T11:43:35.339Z,25.83
2018-05-17T11:46:02.941Z,26.57
2018-05-17T11:48:30.420Z,22.50
2018-05-17T11:50:57.925Z,19.97
2018-05-17T11:53:25.446Z,20.20
2018-05-17T11:55:52.953Z,17.73
2018-05-17T11:58:20.441Z,24.27
2018-05-17T12:00:47.907Z,25.10
2018-05-17T12:03:15.388Z,20.87
2018-05-17T12:05:42.851Z,19.70
2018-05-17T12:08:10.360Z,25.47
2018-05-17T12:10:37.853Z,24.43
2018-05-17T12:13:05.444Z,20.50
2018-05-17T12:15:32.918Z,19.40
2018-05-17T12:18:00.366Z,25.37
2018-05-17T12:20:27.910Z,20.37
2018-05-17T12:22:55.459Z,17.33
2018-05-17T12:25:22.936Z,13.70
2018-05-17T12:27:50.425Z,27.03
2018-05-17T12:30:17.954Z,20.73
2018-05-17T12:32:45.435Z,20.30
2018-05-17T12:35:12.918Z,22.53
2018-05-17T12:37:40.409Z,22.13
2018-05-17T12:40:07.909Z,23.90
2018-05-17T12:42:35.409Z,14.80
2018-05-17T12:45:02.868Z,22.60
2018-05-17T12:47:30.410Z,16.60
2018-05-17T12:49:57.975Z,22.97
2018-05-17T12:52:25.899Z,22.30
2018-05-17T12:54:53.424Z,21.10
2018-05-17T12:57:20.934Z,23.50
2018-05-17T12:59:48.454Z,18.10
2018-05-17T13:02:15.980Z,21.80
2018-05-17T13:04:43.479Z,19.77
2018-05-17T13:07:10.997Z,22.27
2018-05-17T13:09:38.451Z,24.80
2018-05-17T13:12:06.068Z,14.90
2018-05-17T13:14:33.570Z,17.33
2018-05-17T13:17:01.078Z,20.43
2018-05-17T13:19:28.563Z,22.37
2018-05-17T13:21:56.039Z,18.90
2018-05-17T13:24:23.527Z,19.17
2018-05-17T13:26:51.027Z,20.33
2018-05-17T13:29:18.528Z,22.60
2018-05-17T13:31:45.997Z,16.57
2018-05-17T13:34:13.475Z,21.20
2018-05-17T13:36:40.959Z,18.67
2018-05-17T13:39:08.463Z,18.67
2018-05-17T13:41:35.973Z,16.17
2018-05-17T13:44:03.481Z,26.93
2018-05-17T13:46:31.028Z,20.97
2018-05-17T13:48:58.553Z,20.80
2018-05-17T13:51:26.025Z,16.17
2018-05-17T13:53:53.592Z,20.60
2018-05-17T13:56:21.099Z,25.33
2018-05-17T13:58:48.637Z,22.90
2018-05-17T14:01:16.186Z,25.37
2018-05-17T14:03:43.644Z,22.50
2018-05-17T14:06:11.227Z,18.73
2018-05-17T14:08:38.746Z,22.07
2018-05-17T14:11:06.262Z,26.70
2018-05-17T14:13:33.741Z,15.10
2018-05-17T14:16:01.224Z,23.33
2018-05-17T14:18:28.689Z,20.07
2018-05-17T14:20:56.156Z,17.27
2018-05-17T14:23:23.784Z,29.50
2018-05-17T14:25:51.296Z,17.30
2018-05-17T14:28:18.789Z,20.50
2018-05-17T14:30:46.316Z,19.73
2018-05-17T14:33:13.834Z,21.63
2018-05-17T14:35:41.333Z,28.00
2018-05-17T14:38:08.799Z,23.40
2018-05-17T14:40:36.425Z,20.57
2018-05-17T14:43:03.916Z,24.63
2018-05-17T14:45:31.372Z,21.27
2018-05-17T14:47:58.877Z,20.30
2018-05-17T14:50:26.370Z,23.40
2018-05-17T14:52:53.828Z,22.47
2018-05-17T14:55:21.316Z,21.37
2018-05-17T14:57:48.786Z,17.43
2018-05-17T15:00:16.310Z,20.70
2018-05-17T15:02:43.788Z,18.77
2018-05-17T15:05:11.310Z,22.30
2018-05-17T15:07:38.821Z,28.83
2018-05-17T15:10:06.300Z,18.20
2018-05-17T15:12:33.782Z,22.37
2018-05-17T15:15:01.354Z,19.90
2018-05-17T15:17:28.845Z,24.43
2018-05-17T15:19:56.328Z,24.80
2018-05-17T15:22:23.833Z,22.63
2018-05-17T15:24:51.304Z,27.67
2018-05-17T15:27:18.813Z,19.50
2018-05-17T15:29:46.347Z,16.33
2018-05-17T15:32:13.791Z,24.40
2018-05-17T15:34:41.303Z,20.10
2018-05-17T15:37:08.798Z,18.57
2018-05-17T15:39:36.255Z,17.13
2018-05-17T15:42:03.862Z,14.73
2018-05-17T15:44:31.355Z,20.20
2018-05-17T15:46:58.809Z,24.50
2018-05-17T15:49:26.344Z,18.93
2018-05-17T15:51:53.828Z,21.60
2018-05-17T15:54:21.313Z,23.80
2018-05-17T15:56:48.836Z,17.67
2018-05-17T15:59:16.355Z,25.10
2018-05-17T16:01:43.812Z,20.80
2018-05-17T16:04:11.306Z,19.77
2018-05-17T16:06:38.844Z,23.40
2018-05-17T16:09:06.312Z,28.93
2018-05-17T16:11:33.852Z,23.20
2018-05-17T16:14:01.341Z,26.23
2018-05-17T16:16:28.853Z,29.43
2018-05-17T16:18:56.686Z,26.77
2018-05-17T16:21:24.184Z,19.40
2018-05-17T16:23:51.800Z,18.40
2018-05-17T16:26:19.254Z,18.03
2018-05-17T16:28:46.744Z,25.60
2018-05-17T16:31:14.268Z,18.17
2018-05-17T16:33:41.842Z,27.40
2018-05-17T16:36:09.353Z,26.20
2018-05-17T16:38:36.820Z,20.60
2018-05-17T16:41:04.355Z,27.37
2018-05-17T16:43:31.917Z,41.60
2018-05-17T16:45:59.411Z,31.83
2018-05-17T16:48:26.951Z,27.37
2018-05-17T16:50:54.498Z,24.10
2018-05-17T16:53:22.017Z,24.40
2018-05-17T16:55:49.537Z,25.20
2018-05-17T16:58:17.021Z,26.23
2018-05-17T17:00:44.505Z,25.47
2018-05-17T17:03:11.984Z,26.90
2018-05-17T17:05:39.591Z,28.13
2018-05-17T17:08:07.080Z,23.07
2018-05-17T17:10:34.594Z,31.03
2018-05-17T17:13:02.043Z,22.07
2018-05-17T17:15:29.620Z,23.20
2018-05-17T17:17:57.200Z,20.43
2018-05-17T17:20:24.735Z,29.77
2018-05-17T17:22:52.288Z,31.40
2018-05-17T17:25:19.817Z,27.20
2018-05-17T17:27:47.292Z,31.30
2018-05-17T17:30:14.763Z,26.90
2018-05-17T17:32:42.267Z,22.50
2018-05-17T17:35:09.743Z,32.57
2018-05-17T17:37:37.230Z,41.93
2018-05-17T17:40:04.749Z,21.70
2018-05-17T17:42:32.722Z,23.33
2018-05-17T17:45:00.239Z,27.27
2018-05-17T17:47:27.773Z,24.03
2018-05-17T17:49:55.478Z,33.90
2018-05-17T17:52:22.993Z,21.70
2018-05-17T17:54:50.474Z,26.60
2018-05-17T17:57:17.990Z,36.37
2018-05-17T17:59:45.528Z,33.27
2018-05-17T18:02:13.011Z,29.30
2018-05-17T18:04:40.485Z,31.20
2018-05-17T18:07:07.971Z,27.13
2018-05-17T18:09:35.443Z,20.67
2018-05-17T18:12:02.933Z,29.97
2018-05-17T18:14:30.480Z,25.77
2018-05-17T18:16:59.375Z,28.57
2018-05-17T18:19:26.877Z,35.33
2018-05-17T18:21:54.437Z,28.33
2018-05-17T18:24:21.925Z,24.93
2018-05-17T18:26:49.441Z,24.23
2018-05-17T18:29:17.067Z,29.30
2018-05-17T18:31:44.580Z,19.97
2018-05-17T18:34:12.130Z,18.07
2018-05-17T18:36:39.633Z,22.07
2018-05-17T18:39:07.089Z,34.73
2018-05-17T18:41:34.539Z,23.43
2018-05-17T18:44:02.054Z,59.53
2018-05-17T18:46:29.543Z,27.53
2018-05-17T18:48:57.117Z,37.00
2018-05-17T18:51:24.567Z,23.93
2018-05-17T18:53:52.069Z,27.20
2018-05-17T18:56:19.537Z,23.47
2018-05-17T18:58:47.021Z,18.70
2018-05-17T19:01:14.538Z,29.10
2018-05-17T19:03:42.237Z,28.90
2018-05-17T19:06:10.221Z,22.93
2018-05-17T19:08:37.897Z,37.13
2018-05-17T19:11:05.398Z,32.23
2018-05-17T19:13:32.897Z,31.70
2018-05-17T19:16:00.386Z,29.87
2018-05-17T19:18:27.918Z,32.30
2018-05-17T19:20:55.523Z,31.10
2018-05-17T19:23:23.125Z,32.90
2018-05-17T19:25:50.588Z,29.60
2018-05-17T19:28:18.094Z,26.63
2018-05-17T19:30:45.568Z,26.40
2018-05-17T19:33:13.064Z,31.40
2018-05-17T19:35:40.535Z,27.87
2018-05-17T19:38:08.018Z,29.53
2018-05-17T19:40:35.505Z,31.63
2018-05-17T19:43:02.968Z,28.33
2018-05-17T19:45:30.478Z,37.77
2018-05-17T19:47:57.948Z,27.83
2018-05-17T19:50:25.543Z,24.63
2018-05-17T19:52:53.118Z,31.60
2018-05-17T19:55:20.580Z,27.23
2018-05-17T19:57:48.041Z,30.23
2018-05-17T20:00:15.633Z,36.97
2018-05-17T20:02:43.210Z,35.30
2018-05-17T20:05:10.665Z,31.23
2018-05-17T20:07:38.128Z,34.07
2018-05-17T20:10:05.585Z,27.57
2018-05-17T20:12:33.145Z,38.20
2018-05-17T20:15:00.673Z,32.40
2018-05-17T20:17:28.150Z,29.87
2018-05-17T20:19:55.644Z,27.33
2018-05-17T20:22:23.156Z,30.30
2018-05-17T20:24:50.620Z,32.17
2018-05-17T20:27:18.074Z,34.00
2018-05-17T20:29:45.543Z,29.83
2018-05-17T20:32:13.068Z,40.57
2018-05-17T20:34:40.563Z,38.13
2018-05-17T20:37:08.076Z,30.17
2018-05-17T20:39:35.712Z,35.10
2018-05-17T20:42:03.187Z,31.40
2018-05-17T20:44:30.681Z,32.80
2018-05-17T20:46:58.218Z,27.93
2018-05-17T20:49:25.714Z,32.60
2018-05-17T20:51:53.207Z,34.33
2018-05-17T20:54:20.683Z,24.93
2018-05-17T20:56:48.175Z,32.47
2018-05-17T20:59:15.709Z,24.33
2018-05-17T21:01:43.186Z,24.33
2018-05-17T21:04:10.714Z,23.53
2018-05-17T21:06:38.181Z,28.73
2018-05-17T21:09:06.475Z,19.40
2018-05-17T21:11:33.989Z,24.27
2018-05-17T21:14:01.446Z,23.30
2018-05-17T21:16:28.933Z,25.20
2018-05-17T21:18:56.447Z,26.83
2018-05-17T21:21:23.899Z,25.73
2018-05-17T21:23:51.435Z,43.40
2018-05-17T21:26:18.953Z,28.60
2018-05-17T21:28:46.422Z,26.87
2018-05-17T21:31:13.897Z,30.43
2018-05-17T21:33:41.429Z,24.30
2018-05-17T21:36:08.930Z,32.50
2018-05-17T21:38:36.458Z,28.03
2018-05-17T21:41:03.922Z,34.23
2018-05-17T21:43:31.407Z,24.60
2018-05-17T21:45:58.873Z,25.83
2018-05-17T21:48:26.344Z,35.20
2018-05-17T21:50:53.875Z,24.80
2018-05-17T21:53:21.354Z,29.43
2018-05-17T21:55:48.925Z,28.17
2018-05-17T21:58:16.477Z,29.30
2018-05-17T22:00:43.974Z,34.00
2018-05-17T22:03:11.429Z,41.17
2018-05-17T22:05:38.907Z,43.97
2018-05-17T22:08:06.455Z,35.60
2018-05-17T22:10:34.031Z,27.77
2018-05-17T22:13:01.567Z,49.60
2018-05-17T22:15:29.127Z,38.70
2018-05-17T22:17:56.583Z,36.47
2018-05-17T22:20:24.075Z,31.87
2018-05-17T22:22:51.535Z,24.73
2018-05-17T22:25:19.005Z,29.70
2018-05-17T22:27:46.469Z,28.17
2018-05-17T22:30:14.014Z,35.07
2018-05-17T22:32:41.488Z,33.50
2018-05-17T22:35:08.953Z,36.87
2018-05-17T22:40:10.298Z,23.87
2018-05-17T22:42:37.752Z,36.00
2018-05-17T22:45:05.248Z,30.63
2018-05-17T22:47:32.784Z,35.00
2018-05-17T22:50:00.276Z,28.53
2018-05-17T22:52:27.769Z,32.00
2018-05-17T22:54:55.306Z,40.47
2018-05-17T22:57:34.784Z,34.13
2018-05-17T23:00:02.290Z,35.13
2018-05-17T23:02:29.785Z,42.07
2018-05-17T23:04:57.496Z,21.23
2018-05-17T23:07:25.027Z,37.37
2018-05-17T23:09:52.593Z,37.83
2018-05-17T23:12:20.101Z,29.27
2018-05-17T23:14:47.565Z,33.17
2018-05-17T23:17:15.044Z,25.17
2018-05-17T23:19:42.591Z,36.97
2018-05-17T23:22:10.081Z,29.87
2018-05-17T23:24:37.591Z,40.20
2018-05-17T23:27:05.111Z,30.80
2018-05-17T23:29:32.589Z,35.67
2018-05-17T23:32:00.085Z,33.53
2018-05-17T23:34:27.656Z,40.80
2018-05-17T23:36:55.135Z,45.03
2018-05-17T23:39:22.598Z,41.27
2018-05-17T23:41:50.175Z,48.67
2018-05-17T23:44:17.652Z,31.90
2018-05-17T23:46:45.176Z,39.10
2018-05-17T23:49:12.707Z,38.90
2018-05-17T23:51:40.192Z,36.73
2018-05-17T23:54:07.724Z,32.77
2018-05-17T23:56:35.210Z,34.33
2018-05-17T23:59:02.709Z,29.43
